Time;durP1;ratioP1;P1;durP2;ratioP2;P2;SDS_P1;SDS_P2;PMS_P1;PMS_P2;Temp;Humidity;BMP_temperature;BMP_pressure;BME280_temperature;BME280_humidity;BME280_pressure;Samples;Min_cycle;Max_cycle;Signal;HPM_P1;HPM_P2
2022/04/05 00:00:32;;;;;;;5.07;4.00;;;5.10;99.90;;;5.72;100.00;97459.66;4979027;28;20475;-76
2022/04/05 00:03:00;;;;;;;5.23;4.10;;;5.10;99.90;;;5.71;100.00;97460.63;4981326;28;20458;-77
2022/04/05 00:05:28;;;;;;;5.20;4.37;;;5.10;99.90;;;5.72;100.00;97462.25;4980249;28;20503;-77
2022/04/05 00:07:57;;;;;;;7.90;4.40;;;5.10;99.90;;;5.70;100.00;97452.03;4980095;28;20491;-76
2022/04/05 00:10:26;;;;;;;5.80;4.90;;;5.10;99.90;;;5.73;100.00;97453.47;4979113;28;20503;-77
2022/04/05 00:12:56;;;;;;;6.47;4.37;;;5.20;99.90;;;5.71;100.00;97460.63;4977389;28;20457;-77
2022/04/05 00:15:25;;;;;;;7.20;3.80;;;5.10;99.90;;;5.71;100.00;97450.25;4979517;28;20553;-77
2022/04/05 00:17:54;;;;;;;6.37;4.30;;;5.20;99.90;;;5.60;100.00;97446.25;4980483;28;20528;-77
2022/04/05 00:20:22;;;;;;;5.80;3.60;;;5.00;99.90;;;5.64;100.00;97441.53;4980015;28;20495;-76
2022/04/05 00:22:51;;;;;;;9.83;4.80;;;5.00;99.90;;;5.63;100.00;97440.72;4979857;28;20575;-77
2022/04/05 00:25:22;;;;;;;7.13;3.70;;;5.10;99.90;;;5.68;100.00;97445.41;4978590;28;20478;-77
2022/04/05 00:27:50;;;;;;;6.50;3.90;;;5.10;99.90;;;5.66;100.00;97437.78;4981152;28;20856;-77
2022/04/05 00:30:20;;;;;;;5.37;4.40;;;5.20;99.90;;;5.66;100.00;97435.19;4984258;28;20785;-77
2022/04/05 00:32:49;;;;;;;6.40;5.13;;;5.10;99.90;;;5.66;100.00;97431.81;4980617;28;20972;-77
2022/04/05 00:35:18;;;;;;;4.10;3.57;;;5.10;99.90;;;5.68;100.00;97428.06;4982346;28;20458;-77
2022/04/05 00:37:46;;;;;;;4.80;3.97;;;5.10;99.90;;;5.67;100.00;97426.44;4982203;28;20498;-76
2022/04/05 00:40:15;;;;;;;4.50;3.97;;;5.10;99.90;;;5.70;100.00;97407.94;4980565;28;20521;-76
2022/04/05 00:42:44;;;;;;;5.03;4.20;;;5.10;99.90;;;5.70;100.00;97418.31;4983528;28;20463;-77
2022/04/05 00:45:15;;;;;;;5.47;4.30;;;5.20;99.90;;;5.68;100.00;97422.06;4981362;28;20500;-76
2022/04/05 00:47:50;;;;;;;5.03;4.17;;;5.20;99.90;;;5.68;100.00;97420.28;4978537;28;20455;-76
2022/04/05 00:50:23;;;;;;;12.10;4.20;;;5.10;99.90;;;5.68;100.00;97429.84;4979539;28;20984;-77
2022/04/05 00:52:51;;;;;;;7.47;4.30;;;5.10;99.90;;;5.62;100.00;97436.53;4976759;28;23233;-76
2022/04/05 00:55:22;;;;;;;6.77;4.63;;;5.00;99.90;;;5.65;100.00;97428.41;4978067;28;20509;-77
2022/04/05 00:57:53;;;;;;;4.33;3.50;;;5.10;99.90;;;5.61;100.00;97421.13;4979336;28;20479;-76
2022/04/05 01:00:22;;;;;;;4.73;3.93;;;5.00;99.90;;;5.62;100.00;97415.81;4980616;28;20493;-77
2022/04/05 01:02:55;;;;;;;4.40;3.53;;;5.00;99.90;;;5.61;100.00;97421.13;4978511;28;20924;-77
2022/04/05 01:05:25;;;;;;;5.30;3.90;;;5.10;99.90;;;5.61;100.00;97413.38;4981455;28;20954;-77
2022/04/05 01:08:02;;;;;;;3.80;3.40;;;5.00;99.90;;;5.62;100.00;97412.41;4979403;28;20462;-77
2022/04/05 01:10:30;;;;;;;6.20;4.10;;;5.00;99.90;;;5.62;100.00;97409.81;4977847;28;20495;-76
2022/04/05 01:12:59;;;;;;;3.83;3.43;;;5.00;99.90;;;5.61;100.00;97408.19;4977237;28;20466;-77
2022/04/05 01:15:27;;;;;;;4.20;3.03;;;5.00;99.90;;;5.63;100.00;97413.97;4979195;28;20562;-76
2022/04/05 01:17:57;;;;;;;3.77;3.10;;;5.00;99.90;;;5.68;100.00;97415.09;4977618;28;20502;-77
2022/04/05 01:20:25;;;;;;;3.60;3.30;;;5.10;99.90;;;5.67;100.00;97425.63;4978507;28;20506;-76
2022/04/05 01:22:55;;;;;;;3.97;3.27;;;5.10;99.90;;;5.66;100.00;97416.25;4979019;28;20489;-77
2022/04/05 01:25:25;;;;;;;6.43;3.30;;;5.10;99.90;;;5.69;100.00;97421.91;4979200;28;20509;-77
2022/04/05 01:27:54;;;;;;;3.40;3.10;;;5.10;99.90;;;5.71;100.00;97416.53;4978747;28;20537;-77
2022/04/05 01:30:23;;;;;;;4.30;3.60;;;5.10;99.90;;;5.70;100.00;97417.50;4981181;28;20523;-77
2022/04/05 01:32:54;;;;;;;5.60;4.40;;;5.10;99.90;;;5.70;100.00;97423.50;4979311;28;20865;-77
2022/04/05 01:35:22;;;;;;;2.90;2.60;;;5.00;99.90;;;5.76;100.00;97411.66;4978269;28;20459;-76
2022/04/05 01:37:51;;;;;;;3.67;3.10;;;5.20;99.90;;;5.75;100.00;97418.63;4980622;28;20495;-76
2022/04/05 01:40:19;;;;;;;4.47;3.37;;;5.20;99.90;;;5.76;100.00;97411.66;4979812;28;21177;-76
2022/04/05 01:42:49;;;;;;;4.30;3.10;;;5.20;99.90;;;5.79;100.00;97417.31;4984484;28;20954;-76
2022/04/05 01:45:17;;;;;;;5.00;2.93;;;5.30;99.90;;;5.77;100.00;97408.88;4979945;28;20453;-76
2022/04/05 01:47:46;;;;;;;4.43;3.10;;;5.20;99.90;;;5.79;100.00;97406.13;4980615;28;20981;-76
2022/04/05 01:50:14;;;;;;;3.73;3.43;;;5.20;99.90;;;5.74;100.00;97409.22;4977311;28;20508;-77
2022/04/05 01:52:43;;;;;;;6.00;3.20;;;5.20;99.90;;;5.78;100.00;97407.09;4979214;28;20470;-76
2022/04/05 01:55:11;;;;;;;3.20;2.90;;;5.20;99.90;;;5.78;100.00;97402.72;4976979;28;20499;-77
2022/04/05 01:57:40;;;;;;;3.00;2.73;;;5.20;99.90;;;5.76;100.00;97415.03;4976937;28;20469;-77
2022/04/05 02:00:14;;;;;;;3.83;3.10;;;5.20;99.90;;;5.73;100.00;97422.34;4978887;28;20490;-76
2022/04/05 02:02:44;;;;;;;4.70;3.30;;;5.10;99.90;;;5.75;100.00;97413.44;4979948;28;20459;-76
2022/04/05 02:05:12;;;;;;;3.70;2.80;;;5.20;99.90;;;5.76;100.00;97406.47;4979530;28;20466;-76
2022/04/05 02:07:41;;;;;;;3.70;3.17;;;5.20;99.90;;;5.76;100.00;97406.47;4981117;28;20452;-76
2022/04/05 02:10:10;;;;;;;3.97;2.87;;;5.20;99.90;;;5.73;100.00;97401.59;4978753;28;20503;-76
2022/04/05 02:12:39;;;;;;;4.70;3.47;;;5.20;99.90;;;5.73;100.00;97401.59;4978663;28;20482;-76
2022/04/05 02:15:10;;;;;;;2.90;2.70;;;5.20;99.90;;;5.73;100.00;97401.59;4975414;28;20501;-77
2022/04/05 02:17:39;;;;;;;3.07;2.77;;;5.20;99.90;;;5.73;100.00;97399.00;4977305;28;21017;-77
2022/04/05 02:20:09;;;;;;;4.83;3.70;;;5.20;99.90;;;5.72;100.00;97394.81;4978306;28;21049;-76
2022/04/05 02:22:38;;;;;;;3.90;3.30;;;5.20;99.90;;;5.72;100.00;97395.63;4977731;28;20522;-76
2022/04/05 02:25:07;;;;;;;3.30;3.00;;;5.20;99.90;;;5.75;100.00;97391.88;4978921;28;20904;-81
2022/04/05 02:27:35;;;;;;;4.90;2.90;;;5.20;99.90;;;5.71;100.00;97400.97;4978120;28;20475;-76
2022/04/05 02:30:05;;;;;;;6.57;4.03;;;5.10;99.90;;;5.67;100.00;97402.28;4980972;28;20492;-77
2022/04/05 02:32:35;;;;;;;3.40;3.10;;;5.10;99.90;;;5.67;100.00;97392.72;4979565;28;20506;-77
2022/04/05 02:35:04;;;;;;;3.20;3.00;;;5.10;99.90;;;5.69;100.00;97393.38;4977768;28;20500;-76
2022/04/05 02:37:32;;;;;;;3.60;3.30;;;5.10;99.90;;;5.68;100.00;97390.94;4977100;28;20472;-76
2022/04/05 02:40:01;;;;;;;2.90;2.70;;;5.10;99.90;;;5.67;100.00;97399.69;4975497;28;20625;-76
2022/04/05 02:42:29;;;;;;;3.70;2.80;;;5.00;99.90;;;5.66;100.00;97385.16;4977027;28;20500;-77
2022/04/05 02:44:58;;;;;;;4.03;2.60;;;5.10;99.90;;;5.67;100.00;97392.72;4977576;28;20459;-76
2022/04/05 02:47:26;;;;;;;3.50;2.97;;;5.10;99.90;;;5.72;100.00;97394.81;4978367;28;20479;-76
2022/04/05 02:49:56;;;;;;;2.97;2.57;;;5.10;99.90;;;5.72;100.00;97395.63;4976456;28;20602;-76
2022/04/05 02:52:24;;;;;;;4.30;3.13;;;5.20;99.90;;;5.72;100.00;97387.03;4978696;28;20499;-77
2022/04/05 02:54:53;;;;;;;4.00;3.00;;;5.10;99.90;;;5.75;100.00;97384.09;4979688;28;20553;-77
2022/04/05 02:57:22;;;;;;;3.07;2.70;;;5.20;99.90;;;5.74;100.00;97385.06;4975850;28;20554;-77
2022/04/05 02:59:50;;;;;;;3.10;2.80;;;5.20;99.90;;;5.74;100.00;97382.47;4978236;28;20524;-77
2022/04/05 03:02:18;;;;;;;3.93;2.90;;;5.20;99.90;;;5.73;100.00;97370.47;4978925;28;20599;-77
2022/04/05 03:04:47;;;;;;;3.17;2.80;;;5.20;99.90;;;5.75;100.00;97376.31;4979367;28;21064;-76
2022/04/05 03:07:17;;;;;;;3.47;2.97;;;5.20;99.90;;;5.73;100.00;97373.06;4979613;28;20495;-77
2022/04/05 03:09:45;;;;;;;3.40;3.10;;;5.10;99.90;;;5.75;100.00;97371.94;4981736;28;20873;-77
2022/04/05 03:12:14;;;;;;;2.97;2.60;;;5.20;99.90;;;5.78;100.00;97383.75;4981689;28;21012;-77
2022/04/05 03:14:42;;;;;;;3.47;3.17;;;5.20;99.90;;;5.75;100.00;97377.13;4983349;28;20472;-81
2022/04/05 03:17:10;;;;;;;5.90;4.00;;;5.20;99.90;;;5.72;100.00;97369.69;4978467;28;20467;-77
2022/04/05 03:19:39;;;;;;;3.13;2.80;;;5.10;99.90;;;5.73;100.00;97371.28;4981305;28;20500;-77
2022/04/05 03:22:08;;;;;;;3.60;3.30;;;5.10;99.90;;;5.78;100.00;97378.56;4979900;28;20510;-77
2022/04/05 03:24:40;;;;;;;3.43;3.10;;;5.20;99.90;;;5.80;100.00;97381.78;4979464;28;20737;-86
2022/04/05 03:27:09;;;;;;;3.27;2.93;;;5.30;99.90;;;5.79;100.00;97375.81;4982431;28;20588;-77
2022/04/05 03:29:37;;;;;;;3.77;3.40;;;5.30;99.90;;;5.77;100.00;97376.94;4980920;28;20538;-77
2022/04/05 03:32:08;;;;;;;5.63;3.00;;;5.20;99.90;;;5.79;100.00;97378.41;4980519;28;20476;-77
2022/04/05 03:34:37;;;;;;;3.10;2.80;;;5.20;99.90;;;5.79;100.00;97380.19;4983677;28;20501;-77
2022/04/05 03:37:05;;;;;;;3.60;3.30;;;5.20;99.90;;;5.79;100.00;97375.00;4978058;28;20493;-77
2022/04/05 03:39:34;;;;;;;7.13;3.83;;;5.20;99.90;;;5.73;100.00;97373.06;4981500;28;20498;-76
2022/04/05 03:42:05;;;;;;;4.03;3.63;;;5.20;99.90;;;5.76;100.00;97380.53;4978903;28;20506;-77
2022/04/05 03:44:33;;;;;;;3.60;3.30;;;5.20;99.90;;;5.78;100.00;97388.94;4982487;28;20494;-77
2022/04/05 03:47:02;;;;;;;4.90;3.93;;;5.20;99.90;;;5.76;100.00;97380.53;4979658;28;20524;-77
2022/04/05 03:49:30;;;;;;;5.03;4.00;;;5.10;99.90;;;5.81;100.00;97386.00;4981195;28;20505;-77
2022/04/05 03:51:59;;;;;;;3.80;3.40;;;5.20;99.90;;;5.79;100.00;97380.19;4984886;28;20466;-77
2022/04/05 03:54:27;;;;;;;4.10;3.53;;;5.30;99.90;;;5.79;100.00;97380.19;4982832;28;20464;-77
2022/04/05 03:56:56;;;;;;;3.90;3.43;;;5.30;99.90;;;5.74;100.00;97374.69;4982759;28;20508;-77
2022/04/05 03:59:26;;;;;;;3.40;2.83;;;5.20;99.90;;;5.77;100.00;97371.75;4980305;28;20499;-81
2022/04/05 04:01:57;;;;;;;4.17;3.60;;;5.20;99.90;;;5.75;100.00;97381.50;4980413;28;20559;-77
2022/04/05 04:04:27;;;;;;;4.73;3.87;;;5.20;99.90;;;5.70;100.00;97376.81;4982934;28;20548;-77
2022/04/05 04:06:58;;;;;;;5.30;4.23;;;5.00;99.90;;;5.74;100.00;97383.28;4982580;28;20508;-77
2022/04/05 04:09:28;;;;;;;3.43;3.13;;;5.10;99.90;;;5.74;100.00;97370.31;4982228;28;20459;-76
2022/04/05 04:11:58;;;;;;;4.90;3.27;;;5.10;99.90;;;5.73;100.00;97375.66;4981231;28;20498;-77
2022/04/05 04:14:31;;;;;;;3.80;3.50;;;5.20;99.90;;;5.73;100.00;97371.28;4980149;28;21036;-77
2022/04/05 04:17:01;;;;;;;4.47;3.20;;;5.20;99.90;;;5.75;100.00;97368.53;4982997;28;20554;-76
2022/04/05 04:19:32;;;;;;;4.00;3.37;;;5.20;99.90;;;5.76;100.00;97375.34;4982494;28;20519;-77
2022/04/05 04:22:02;;;;;;;5.43;3.50;;;5.20;99.90;;;5.78;100.00;97378.56;4982495;28;20475;-77
2022/04/05 04:24:31;;;;;;;4.20;3.80;;;5.20;99.90;;;5.78;100.00;97373.38;4984619;28;20527;-76
2022/04/05 04:27:01;;;;;;;4.10;3.53;;;5.20;99.90;;;5.75;100.00;97371.94;4980614;28;20474;-76
2022/04/05 04:29:34;;;;;;;3.47;3.00;;;5.20;99.90;;;5.66;100.00;97383.31;4982684;28;20466;-77
2022/04/05 04:32:06;;;;;;;4.20;3.20;;;5.00;99.90;;;5.69;100.00;97371.81;4983584;28;20459;-76
2022/04/05 04:34:36;;;;;;;4.00;3.60;;;5.00;99.90;;;5.68;100.00;97383.16;4983911;28;20461;-77
2022/04/05 04:37:06;;;;;;;4.10;3.70;;;5.00;99.90;;;5.74;100.00;97385.06;4983635;28;20493;-77
2022/04/05 04:39:37;;;;;;;12.13;4.20;;;5.10;99.90;;;5.70;100.00;97376.00;4983504;28;20490;-77
2022/04/05 04:42:12;;;;;;;3.90;3.50;;;5.00;99.90;;;5.72;100.00;97379.25;4982471;28;20441;-77
2022/04/05 04:44:43;;;;;;;5.20;3.87;;;5.10;99.90;;;5.72;100.00;97390.44;4980945;28;20455;-77
2022/04/05 04:47:12;;;;;;;4.40;3.77;;;5.10;99.90;;;5.70;100.00;97388.97;4983174;28;20451;-77
2022/04/05 04:49:42;;;;;;;4.40;3.90;;;5.10;99.90;;;5.68;100.00;97383.16;4984335;28;20462;-77
2022/04/05 04:52:12;;;;;;;8.50;4.70;;;5.10;99.90;;;5.71;100.00;97395.78;4983603;28;20451;-76
2022/04/05 04:54:42;;;;;;;5.97;4.43;;;5.10;99.90;;;5.75;100.00;97389.28;4984735;28;20540;-77
2022/04/05 04:57:13;;;;;;;4.90;4.40;;;5.20;99.90;;;5.76;100.00;97380.53;4983856;28;20544;-76
2022/04/05 04:59:43;;;;;;;5.10;4.07;;;5.20;99.90;;;5.75;100.00;97378.91;4980885;28;21011;-77
2022/04/05 05:02:14;;;;;;;4.47;4.07;;;5.20;99.90;;;5.69;100.00;97380.41;4982030;28;20453;-77
2022/04/05 05:04:44;;;;;;;5.60;4.40;;;5.10;99.90;;;5.65;100.00;97379.16;4981499;28;20449;-77
2022/04/05 05:07:16;;;;;;;5.17;3.80;;;5.00;99.90;;;5.65;100.00;97375.75;4984788;28;20530;-77
2022/04/05 05:09:46;;;;;;;7.60;4.10;;;5.00;99.90;;;5.71;100.00;97375.84;4982707;28;20447;-77
2022/04/05 05:12:15;;;;;;;3.87;3.47;;;5.00;99.90;;;5.69;100.00;97375.22;4983710;28;20454;-77
2022/04/05 05:14:48;;;;;;;5.13;3.70;;;5.00;99.90;;;5.70;100.00;97376.00;4980859;28;20943;-77
2022/04/05 05:17:18;;;;;;;5.43;3.20;;;5.10;99.90;;;5.75;100.00;97376.31;4980506;28;20450;-77
2022/04/05 05:19:49;;;;;;;3.50;3.13;;;5.20;99.90;;;5.76;100.00;97375.34;4980922;28;20984;-77
2022/04/05 05:22:18;;;;;;;3.30;3.00;;;5.20;99.90;;;5.76;100.00;97375.34;4979044;28;20469;-76
2022/04/05 05:24:49;;;;;;;3.47;3.17;;;5.10;99.90;;;5.78;100.00;97373.38;4977398;28;20941;-77
2022/04/05 05:27:19;;;;;;;3.67;2.90;;;5.10;99.90;;;5.79;100.00;97375.00;4979613;28;20467;-77
2022/04/05 05:29:50;;;;;;;3.50;2.60;;;5.20;99.90;;;5.80;100.00;97376.59;4981888;28;20455;-76
2022/04/05 05:32:20;;;;;;;3.67;2.90;;;5.20;99.90;;;5.84;100.00;97383.84;4981009;28;20455;-76
2022/04/05 05:34:49;;;;;;;3.20;2.83;;;5.20;99.90;;;5.89;100.00;97380.78;4980955;28;20458;-77
2022/04/05 05:37:19;;;;;;;6.13;3.10;;;5.30;99.90;;;5.90;100.00;97388.38;4982437;28;20455;-77
2022/04/05 05:39:50;;;;;;;3.30;2.90;;;5.30;99.90;;;5.90;100.00;97390.19;4981537;28;20457;-77
2022/04/05 05:42:20;;;;;;;4.43;2.93;;;5.40;99.90;;;5.93;100.00;97393.25;4982298;28;20452;-77
2022/04/05 05:44:52;;;;;;;2.60;2.40;;;5.40;99.90;;;5.93;100.00;97398.44;4979803;28;21376;-77
2022/04/05 05:47:24;;;;;;;2.83;2.50;;;5.40;99.90;;;5.91;100.00;97394.38;4979953;28;20516;-77
2022/04/05 05:49:54;;;;;;;3.47;2.20;;;5.40;99.90;;;5.91;100.00;97394.38;4979195;28;21882;-77
2022/04/05 05:52:24;;;;;;;3.23;2.40;;;5.30;99.90;;;5.93;100.00;97403.63;4978989;28;20451;-77
2022/04/05 05:54:54;;;;;;;3.23;2.40;;;5.40;99.90;;;5.90;100.00;97409.13;4981748;28;20485;-77
2022/04/05 05:57:23;;;;;;;3.47;2.50;;;5.40;99.90;;;5.90;100.00;97405.75;4983003;28;20453;-77
2022/04/05 05:59:55;;;;;;;5.53;2.57;;;5.40;99.90;;;5.88;100.00;97415.47;4982781;28;20451;-77
2022/04/05 06:02:26;;;;;;;2.43;2.23;;;5.30;99.90;;;5.90;100.00;97423.91;4980470;28;20478;-77
2022/04/05 06:04:56;;;;;;;2.90;2.20;;;5.30;99.90;;;5.93;100.00;97426.97;4978590;28;20447;-77
2022/04/05 06:07:26;;;;;;;2.80;2.60;;;5.40;99.90;;;5.96;100.00;97429.22;4978401;28;20448;-77
2022/04/05 06:09:56;;;;;;;2.90;2.30;;;5.40;99.90;;;5.99;100.00;97433.25;4978980;28;20444;-77
2022/04/05 06:12:26;;;;;;;2.03;1.93;;;5.50;99.90;;;5.99;100.00;97430.66;4982518;28;20458;-76
2022/04/05 06:14:58;;;;;;;2.00;1.90;;;5.50;99.90;;;6.01;100.00;97423.50;4980256;28;20471;-77
2022/04/05 06:17:28;;;;;;;2.50;2.30;;;5.50;99.90;;;5.98;100.00;97436.81;4979270;28;20538;-76
2022/04/05 06:19:59;;;;;;;2.70;2.17;;;5.50;99.90;;;6.01;100.00;97439.06;4982072;28;20525;-77
2022/04/05 06:22:29;;;;;;;3.23;2.50;;;5.50;99.90;;;6.03;100.00;97434.53;4981210;28;21079;-77
2022/04/05 06:24:59;;;;;;;2.00;1.90;;;5.50;99.90;;;6.02;100.00;97438.09;4983158;28;21140;-77
2022/04/05 06:27:29;;;;;;;2.60;2.40;;;5.50;99.90;;;6.02;100.00;97436.31;4981590;28;20960;-77
2022/04/05 06:30:01;;;;;;;2.37;2.17;;;5.50;99.90;;;6.04;100.00;97436.13;4980880;28;20510;-77
2022/04/05 06:32:32;;;;;;;2.63;2.37;;;5.50;99.90;;;6.07;100.00;97446.94;4980893;28;20521;-77
2022/04/05 06:35:02;;;;;;;3.07;2.77;;;5.50;99.90;;;6.03;100.00;97448.31;4982763;28;20796;-77
2022/04/05 06:37:33;;;;;;;2.50;2.23;;;5.50;99.90;;;6.03;100.00;97450.09;4986794;28;20482;-77
2022/04/05 06:40:04;;;;;;;2.50;2.30;;;5.50;99.90;;;5.98;100.00;97442.00;4985240;28;20450;-77
2022/04/05 06:42:33;;;;;;;3.17;2.87;;;5.30;99.90;;;6.00;100.00;97440.06;4985994;28;20501;-77
2022/04/05 06:45:06;;;;;;;2.60;2.40;;;5.40;99.90;;;6.03;100.00;97439.72;4984962;28;20467;-77
2022/04/05 06:47:37;;;;;;;3.30;2.53;;;5.40;99.90;;;6.05;100.00;97442.94;4985232;28;20964;-77
2022/04/05 06:50:10;;;;;;;2.37;2.00;;;5.50;99.90;;;6.07;100.00;97457.34;4985409;28;20538;-77
2022/04/05 06:52:42;;;;;;;2.40;2.20;;;5.40;99.90;;;6.11;100.00;97457.78;4984266;28;20530;-77
2022/04/05 06:55:13;;;;;;;2.60;2.30;;;5.50;99.90;;;6.15;100.00;97448.69;4984145;28;20527;-77
2022/04/05 06:57:44;;;;;;;2.07;1.90;;;5.60;99.90;;;6.13;100.00;97444.66;4985950;28;21057;-77
2022/04/05 07:00:18;;;;;;;3.13;2.43;;;5.50;99.90;;;6.14;100.00;97447.09;4983877;28;20448;-77
2022/04/05 07:02:47;;;;;;;2.30;2.10;;;5.60;99.90;;;6.16;100.00;97447.72;4984324;28;20454;-77
2022/04/05 07:05:17;;;;;;;2.13;1.90;;;5.60;99.90;;;6.18;100.00;97448.34;4985762;28;20885;-76
2022/04/05 07:07:47;;;;;;;2.10;1.90;;;5.60;99.90;;;6.16;100.00;97452.91;4983128;28;20542;-77
2022/04/05 07:10:20;;;;;;;2.40;2.03;;;5.50;99.90;;;6.20;100.00;97446.38;4982814;28;20461;-76
2022/04/05 07:12:51;;;;;;;2.43;1.90;;;5.60;99.90;;;6.21;100.00;97442.81;4983890;28;20451;-77
2022/04/05 07:15:23;;;;;;;2.63;2.00;;;5.60;99.90;;;6.19;100.00;97449.16;4984791;28;20521;-77
2022/04/05 07:17:54;;;;;;;2.10;1.90;;;5.50;99.90;;;6.26;100.00;97445.69;4983971;28;20456;-77
2022/04/05 07:20:34;;;;;;;2.40;2.10;;;5.70;99.90;;;6.24;100.00;97444.25;4985652;28;20806;-77
2022/04/05 07:23:05;;;;;;;2.53;2.20;;;5.60;99.90;;;6.23;100.00;97448.63;4985239;28;20455;-77
2022/04/05 07:25:35;;;;;;;2.40;1.90;;;5.60;99.90;;;6.28;100.00;97443.72;4983719;28;20449;-77
2022/04/05 07:28:06;;;;;;;2.27;2.03;;;5.70;99.90;;;6.28;100.00;97448.91;4984875;28;20466;-77
2022/04/05 07:30:39;;;;;;;2.00;1.80;;;5.60;99.90;;;6.31;100.00;97448.56;4983832;28;20458;-77
2022/04/05 07:33:10;;;;;;;2.20;1.83;;;5.70;99.90;;;6.31;100.00;97448.56;4984331;28;20507;-77
2022/04/05 07:35:39;;;;;;;1.67;1.57;;;5.60;99.90;;;6.30;100.00;97440.94;4984865;28;20444;-77
2022/04/05 07:38:10;;;;;;;2.17;1.97;;;5.60;99.90;;;6.32;100.00;97444.16;4984650;28;20455;-77
2022/04/05 07:40:50;;;;;;;4.73;2.37;;;5.60;99.90;;;6.39;100.00;97450.28;4983450;28;20449;-77
2022/04/05 07:43:21;;;;;;;1.90;1.80;;;5.80;99.90;;;6.40;100.00;97457.91;4983463;28;20535;-76
2022/04/05 07:45:54;;;;;;;2.70;2.37;;;5.80;99.90;;;6.42;100.00;97450.72;4984131;28;20459;-77
2022/04/05 07:48:28;;;;;;;2.07;1.93;;;5.80;99.90;;;6.47;100.00;97448.44;4984404;28;20511;-77
2022/04/05 07:51:00;;;;;;;2.63;1.80;;;5.90;99.90;;;6.47;100.00;97443.22;4983790;28;20459;-77
2022/04/05 07:53:30;;;;;;;2.03;1.90;;;5.80;99.90;;;6.54;100.00;97449.34;4984104;28;20464;-77
2022/04/05 07:56:00;;;;;;;2.17;1.97;;;6.00;99.90;;;6.55;100.00;97444.97;4984132;28;20917;-77
2022/04/05 07:58:29;;;;;;;1.67;1.57;;;6.00;99.90;;;6.52;100.00;97448.72;4984899;28;20444;-77
2022/04/05 08:01:02;;;;;;;2.23;2.03;;;5.80;99.90;;;6.56;100.00;97442.16;4984780;28;20479;-77
2022/04/05 08:03:32;;;;;;;2.80;2.17;;;5.90;99.90;;;6.61;100.00;97435.63;4984738;28;20525;-77
2022/04/05 08:06:02;;;;;;;2.00;1.90;;;6.00;99.90;;;6.63;100.00;97442.25;4984357;28;20502;-77
2022/04/05 08:08:32;;;;;;;2.70;2.33;;;6.10;99.90;;;6.69;100.00;97448.56;4983408;28;20441;-77
2022/04/05 08:11:22;;;;;;;6.67;1.80;;;6.10;99.90;;;6.69;100.00;97446.78;4983028;28;20480;-77
2022/04/05 08:13:53;;;;;;;3.60;2.00;;;6.10;99.90;;;6.76;100.00;97446.88;4983803;28;20464;-77
2022/04/05 08:16:31;;;;;;;2.20;2.00;;;6.20;99.90;;;6.76;100.00;97441.66;4984067;28;20466;-77
2022/04/05 08:19:01;;;;;;;2.67;2.07;;;6.20;99.90;;;6.74;100.00;97439.25;4983439;28;20841;-77
2022/04/05 08:21:31;;;;;;;2.00;1.90;;;6.20;99.90;;;6.78;100.00;97445.69;4983887;28;20884;-77
2022/04/05 08:24:01;;;;;;;2.17;1.80;;;6.30;99.90;;;6.82;100.00;97454.75;4982538;28;20447;-76
2022/04/05 08:26:31;;;;;;;2.00;1.83;;;6.30;99.90;;;6.87;100.00;97444.63;4983857;28;20539;-77
2022/04/05 08:29:00;;;;;;;2.33;1.60;;;6.30;99.90;;;6.87;100.00;97449.03;4983440;28;20459;-77
2022/04/05 08:31:31;;;;;;;1.83;1.73;;;6.40;99.90;;;6.86;100.00;97452.59;4982600;28;20452;-77
2022/04/05 08:34:02;;;;;;;3.03;2.07;;;6.30;99.90;;;6.87;100.00;97449.81;4983176;28;20487;-77
2022/04/05 08:36:31;;;;;;;2.43;2.10;;;6.20;99.90;;;6.93;100.00;97456.09;4983678;28;20546;-77
2022/04/05 08:39:00;;;;;;;1.90;1.80;;;6.30;99.90;;;6.92;100.00;97459.69;4984095;28;20468;-77
2022/04/05 08:41:35;;;;;;;1.73;1.63;;;6.30;99.90;;;6.89;100.00;97458.25;4982477;28;21003;-77
2022/04/05 08:44:08;;;;;;;3.43;2.33;;;6.20;99.90;;;6.89;100.00;97462.66;4983425;28;20440;-77
2022/04/05 08:46:42;;;;;;;2.40;2.20;;;6.20;99.90;;;7.01;100.00;97469.03;4982701;28;20447;-77
2022/04/05 08:49:14;;;;;;;1.80;1.70;;;6.40;99.90;;;7.04;100.00;97471.25;4983408;28;20447;-77
2022/04/05 08:51:44;;;;;;;1.90;1.80;;;6.40;99.90;;;6.98;100.00;97471.97;4978628;28;20483;-77
2022/04/05 08:54:13;;;;;;;2.40;2.20;;;6.40;99.90;;;7.06;100.00;97472.69;4981500;28;20464;-77
2022/04/05 08:56:44;;;;;;;2.97;2.43;;;6.40;99.90;;;7.10;100.00;97475.75;4979913;28;20444;-77
2022/04/05 08:59:14;;;;;;;1.93;1.80;;;6.50;99.90;;;7.11;100.00;97473.97;4981069;28;20448;-77
2022/04/05 09:01:45;;;;;;;2.33;2.13;;;6.60;99.90;;;7.06;100.00;97472.69;4979178;28;20574;-77
2022/04/05 09:04:15;;;;;;;2.80;2.40;;;6.40;99.90;;;7.10;100.00;97480.94;4980709;28;20480;-77
2022/04/05 09:06:46;;;;;;;2.83;2.33;;;6.50;99.90;;;7.10;100.00;97486.13;4982108;28;20459;-77
2022/04/05 09:09:19;;;;;;;2.60;2.40;;;6.40;99.90;;;7.10;100.00;97491.34;4982740;28;20444;-77
2022/04/05 09:11:50;;;;;;;2.40;2.20;;;6.60;99.90;;;7.07;100.00;97482.13;4978210;28;20588;-77
2022/04/05 09:14:26;;;;;;;5.13;2.87;;;6.40;99.90;;;7.09;100.00;97492.31;4979920;28;21355;-77
2022/04/05 09:17:09;;;;;;;2.77;2.40;;;6.50;99.90;;;7.05;100.00;97484.06;4978467;28;20451;-77
2022/04/05 09:19:42;;;;;;;2.10;1.93;;;6.40;99.90;;;7.09;100.00;97479.31;4979221;28;20449;-77
2022/04/05 09:22:12;;;;;;;2.77;2.43;;;6.50;99.90;;;7.16;100.00;97480.22;4978193;28;20500;-77
2022/04/05 09:24:44;;;;;;;2.57;2.37;;;6.60;99.90;;;7.14;100.00;97482.19;4981185;28;20959;-77
2022/04/05 09:27:14;;;;;;;3.07;2.70;;;6.60;99.90;;;7.19;100.00;97479.03;4981052;28;21042;-77
2022/04/05 09:29:47;;;;;;;3.60;2.60;;;6.70;99.90;;;7.12;100.00;97481.56;4982701;28;20460;-77
2022/04/05 09:32:36;;;;;;;4.33;3.30;;;6.50;99.90;;;7.11;100.00;97477.38;4983108;28;20466;-78
2022/04/05 09:35:09;;;;;;;4.00;3.10;;;6.50;99.90;;;7.16;100.00;97480.22;4979281;28;21508;-77
2022/04/05 09:37:40;;;;;;;3.07;2.50;;;6.60;99.90;;;7.17;100.00;97481.03;4981203;28;20446;-77
2022/04/05 09:40:32;;;;;;;3.77;3.10;;;6.50;99.90;;;7.11;100.00;97482.56;4980995;28;21014;-77
2022/04/05 09:43:22;;;;;;;2.83;2.63;;;6.50;99.90;;;7.18;100.00;97486.06;4982451;28;20582;-77
2022/04/05 09:45:57;;;;;;;3.50;3.20;;;6.70;99.90;;;7.13;100.00;97477.97;4982431;28;20869;-77
2022/04/05 09:48:33;;;;;;;4.07;3.33;;;6.50;99.90;;;7.16;100.00;97480.22;4982329;28;20482;-77
2022/04/05 09:51:25;;;;;;;4.97;2.80;;;6.50;99.90;;;7.16;100.00;97485.41;4981460;28;20447;-77
2022/04/05 09:53:57;;;;;;;3.97;3.50;;;6.50;99.90;;;7.23;100.00;97483.72;4982506;28;20459;-77
2022/04/05 09:56:30;;;;;;;3.90;3.50;;;6.60;99.90;;;7.27;100.00;97490.19;4980527;28;20459;-77
2022/04/05 09:59:03;;;;;;;4.10;3.50;;;6.70;99.90;;;7.26;100.00;97496.34;4981436;28;20475;-77
2022/04/05 10:01:36;;;;;;;4.13;3.73;;;6.60;99.90;;;7.17;100.00;97494.03;4981645;28;20459;-77
2022/04/05 10:04:11;;;;;;;2.90;2.70;;;6.50;99.90;;;7.23;100.00;97494.13;4981839;28;20936;-77
2022/04/05 10:06:44;;;;;;;5.17;3.37;;;6.60;99.90;;;7.25;100.00;97493.94;4980060;28;20527;-77
2022/04/05 10:09:15;;;;;;;3.67;3.30;;;6.60;99.90;;;7.27;100.00;97497.97;4981211;28;20484;-77
2022/04/05 10:11:47;;;;;;;3.73;3.33;;;6.60;99.90;;;7.38;100.00;97500.13;4984448;28;20471;-77
2022/04/05 10:14:20;;;;;;;3.80;3.40;;;6.80;99.90;;;7.37;100.00;97498.50;4986614;28;20472;-78
2022/04/05 10:16:50;;;;;;;4.13;3.63;;;6.80;99.90;;;7.44;100.00;97498.59;4986288;28;20544;-77
2022/04/05 10:19:24;;;;;;;4.43;3.67;;;6.90;99.90;;;7.44;100.00;97499.41;4986383;28;20523;-77
2022/04/05 10:21:57;;;;;;;4.20;3.80;;;6.90;99.90;;;7.50;100.00;97503.88;4985575;28;20467;-77
2022/04/05 10:24:28;;;;;;;3.80;3.40;;;7.00;99.90;;;7.44;100.00;97498.59;4985542;28;20488;-77
2022/04/05 10:26:58;;;;;;;4.50;3.90;;;6.80;99.90;;;7.47;100.00;97501.63;4984137;28;20947;-76
2022/04/05 10:29:30;;;;;;;4.80;4.40;;;6.90;99.90;;;7.51;100.00;97497.69;4984977;28;20497;-77
2022/04/05 10:32:09;;;;;;;4.30;3.20;;;7.00;99.90;;;7.55;100.00;97501.56;4985598;28;20971;-77
2022/04/05 10:34:50;;;;;;;3.87;3.43;;;7.10;99.90;;;7.55;100.00;97496.34;4984941;28;20451;-77
2022/04/05 10:37:31;;;;;;;4.07;3.70;;;7.00;99.90;;;7.58;100.00;97489.97;4985707;28;20516;-77
2022/04/05 10:40:17;;;;;;;4.37;3.60;;;7.10;99.90;;;7.62;100.00;97491.22;4983183;28;20471;-77